Time;durP1;ratioP1;P1;durP2;ratioP2;P2;SDS_P1;SDS_P2;PMS_P1;PMS_P2;Temp;Humidity;BMP_temperature;BMP_pressure;BME280_temperature;BME280_humidity;BME280_pressure;Samples;Min_cycle;Max_cycle;Signal;HPM_P1;HPM_P2
2022/11/20 00:00:31;;;;;;;18.93;13.83;;;5.80;99.90;;;;;;958966;145;27350;-79
2022/11/20 00:02:57;;;;;;;20.70;14.67;;;5.80;99.90;;;;;;959372;145;27321;-79
2022/11/20 00:05:24;;;;;;;19.77;14.13;;;5.80;99.90;;;;;;957635;145;27385;-79
2022/11/20 00:07:51;;;;;;;16.93;13.17;;;5.80;99.90;;;;;;957999;145;27306;-79
2022/11/20 00:10:17;;;;;;;17.67;13.27;;;5.90;99.90;;;;;;958143;145;27383;-79
2022/11/20 00:12:44;;;;;;;18.13;13.87;;;5.80;99.90;;;;;;958644;145;27337;-80
2022/11/20 00:15:10;;;;;;;19.87;13.97;;;5.80;99.90;;;;;;959098;145;27349;-78
2022/11/20 00:17:37;;;;;;;18.10;15.03;;;5.90;99.90;;;;;;959630;145;27604;-79
2022/11/20 00:20:04;;;;;;;21.30;15.60;;;5.90;99.90;;;;;;957784;145;27309;-78
2022/11/20 00:22:30;;;;;;;17.67;14.60;;;5.90;99.90;;;;;;957837;145;27390;-79
2022/11/20 00:24:57;;;;;;;19.37;14.63;;;5.80;99.90;;;;;;957528;145;27311;-79
2022/11/20 00:27:23;;;;;;;19.47;15.07;;;5.90;99.90;;;;;;958010;145;27451;-79
2022/11/20 00:29:50;;;;;;;20.43;14.00;;;5.90;99.90;;;;;;958908;145;27481;-79
2022/11/20 00:32:17;;;;;;;19.10;14.43;;;5.90;99.90;;;;;;961158;147;27377;-79
2022/11/20 00:34:43;;;;;;;19.00;14.03;;;5.90;99.90;;;;;;961514;147;27388;-80
2022/11/20 00:37:10;;;;;;;17.73;14.10;;;5.90;99.90;;;;;;961700;147;27312;-81
2022/11/20 00:39:36;;;;;;;19.37;14.30;;;5.90;99.90;;;;;;960350;147;27357;-79
2022/11/20 00:42:03;;;;;;;20.07;15.77;;;5.90;99.90;;;;;;962217;147;27789;-79
2022/11/20 00:44:29;;;;;;;22.17;15.07;;;5.90;99.90;;;;;;962673;146;27350;-79
2022/11/20 00:46:56;;;;;;;18.50;14.50;;;5.90;99.90;;;;;;962564;147;27383;-79
2022/11/20 00:49:23;;;;;;;18.73;13.97;;;5.90;99.90;;;;;;961686;147;27310;-80
2022/11/20 00:51:49;;;;;;;21.80;15.63;;;6.00;99.90;;;;;;963149;147;27509;-80
2022/11/20 00:54:16;;;;;;;18.37;13.97;;;6.00;99.90;;;;;;961487;146;27351;-80
2022/11/20 00:56:42;;;;;;;20.33;15.17;;;6.00;99.90;;;;;;964366;147;27170;-79
2022/11/20 00:59:09;;;;;;;20.90;14.90;;;6.00;99.90;;;;;;962279;147;27704;-80
2022/11/20 01:01:36;;;;;;;18.63;14.37;;;6.00;99.90;;;;;;961045;147;27305;-79
2022/11/20 01:04:02;;;;;;;17.67;14.03;;;6.00;99.90;;;;;;959191;147;27447;-80
2022/11/20 01:06:29;;;;;;;19.33;14.80;;;6.00;99.90;;;;;;963391;147;28792;-79
2022/11/20 01:08:55;;;;;;;18.07;14.57;;;6.00;99.90;;;;;;961879;147;27495;-79
2022/11/20 01:11:22;;;;;;;21.30;15.33;;;6.00;99.90;;;;;;961224;147;27319;-79
2022/11/20 01:13:49;;;;;;;21.23;15.27;;;6.00;99.90;;;;;;959945;147;27402;-79
2022/11/20 01:16:18;;;;;;;21.50;15.10;;;6.00;99.90;;;;;;963126;147;27345;-81
2022/11/20 01:18:44;;;;;;;20.37;15.90;;;6.10;99.90;;;;;;962218;147;27462;-79
2022/11/20 01:21:11;;;;;;;18.63;14.23;;;6.00;99.90;;;;;;962846;147;27301;-80
2022/11/20 01:23:38;;;;;;;18.97;15.10;;;6.00;99.90;;;;;;960552;147;28002;-79
2022/11/20 01:26:04;;;;;;;20.70;15.10;;;6.00;99.90;;;;;;962753;147;27274;-79
2022/11/20 01:28:31;;;;;;;19.03;14.97;;;6.00;99.90;;;;;;961663;146;27317;-81
2022/11/20 01:30:57;;;;;;;21.13;14.63;;;6.00;99.90;;;;;;958821;147;27503;-79
2022/11/20 01:33:24;;;;;;;20.13;15.97;;;6.00;99.90;;;;;;954717;148;28431;-79
2022/11/20 01:35:51;;;;;;;18.40;15.10;;;6.00;99.90;;;;;;956917;148;27380;-79
2022/11/20 01:38:17;;;;;;;19.47;15.27;;;6.00;99.90;;;;;;955976;148;27416;-79
2022/11/20 01:40:44;;;;;;;20.60;15.40;;;5.90;99.90;;;;;;956243;148;27260;-79
2022/11/20 01:43:22;;;;;;;20.63;14.63;;;5.90;99.90;;;;;;956403;148;27333;-80
2022/11/20 01:45:51;;;;;;;18.63;13.67;;;6.00;99.90;;;;;;957934;148;27493;-79
2022/11/20 01:48:18;;;;;;;20.57;14.13;;;5.90;99.90;;;;;;957643;148;27419;-79
2022/11/20 01:50:44;;;;;;;21.23;15.00;;;6.00;99.90;;;;;;956304;148;27310;-79
2022/11/20 01:53:11;;;;;;;20.23;13.93;;;6.00;99.90;;;;;;956590;148;27478;-79
2022/11/20 01:55:37;;;;;;;18.50;14.70;;;6.00;99.90;;;;;;955382;148;27454;-78
2022/11/20 01:58:04;;;;;;;20.10;15.30;;;6.00;99.90;;;;;;955793;148;27361;-78
2022/11/20 02:00:31;;;;;;;20.43;15.50;;;6.00;99.90;;;;;;955260;148;27704;-79
2022/11/20 02:02:57;;;;;;;18.47;14.17;;;6.00;99.90;;;;;;957616;148;27896;-79
2022/11/20 02:05:36;;;;;;;19.83;14.50;;;6.10;99.90;;;;;;953907;148;27345;-78
2022/11/20 02:08:02;;;;;;;20.33;15.43;;;6.00;99.90;;;;;;950004;148;27339;-79
2022/11/20 02:10:29;;;;;;;20.50;14.80;;;6.10;99.90;;;;;;957280;148;27427;-78
2022/11/20 02:15:40;;;;;;;19.17;13.97;;;6.10;99.90;;;;;;955091;148;27273;-79
2022/11/20 02:18:07;;;;;;;20.03;14.80;;;6.10;99.90;;;;;;956445;148;27346;-80
2022/11/20 02:20:33;;;;;;;18.43;14.60;;;6.10;99.90;;;;;;958043;148;27332;-78
2022/11/20 02:23:18;;;;;;;19.47;14.47;;;6.10;99.90;;;;;;955233;148;27319;-79
2022/11/20 02:25:44;;;;;;;21.80;15.20;;;6.10;99.90;;;;;;955975;148;27315;-79
2022/11/20 02:28:11;;;;;;;20.73;15.40;;;6.10;99.90;;;;;;958325;148;27318;-80
2022/11/20 02:30:38;;;;;;;18.50;14.80;;;6.10;99.90;;;;;;957154;148;27441;-79
2022/11/20 02:33:04;;;;;;;19.07;13.83;;;6.10;99.90;;;;;;954614;148;27362;-79
2022/11/20 02:35:31;;;;;;;20.80;15.63;;;6.10;99.90;;;;;;954986;148;27473;-79
2022/11/20 02:37:57;;;;;;;19.60;15.30;;;6.10;99.90;;;;;;955227;148;27278;-78
2022/11/20 02:40:24;;;;;;;19.73;14.67;;;6.10;99.90;;;;;;956172;148;27909;-79
2022/11/20 02:42:53;;;;;;;22.00;15.03;;;6.10;99.90;;;;;;955434;148;27304;-79
2022/11/20 02:45:20;;;;;;;19.30;15.23;;;6.10;99.90;;;;;;955716;148;27453;-80
2022/11/20 02:47:47;;;;;;;20.80;15.20;;;6.10;99.90;;;;;;954683;148;27332;-79
2022/11/20 02:50:13;;;;;;;21.53;14.17;;;6.10;99.90;;;;;;924472;154;27464;-78
2022/11/20 02:52:40;;;;;;;19.87;14.83;;;6.10;99.90;;;;;;924473;154;27400;-80
2022/11/20 02:55:06;;;;;;;20.70;15.37;;;6.20;99.90;;;;;;923493;154;27384;-81
2022/11/20 02:57:33;;;;;;;18.93;14.83;;;6.20;99.90;;;;;;937516;151;27471;-82
2022/11/20 03:00:00;;;;;;;20.70;14.27;;;6.20;99.90;;;;;;931584;152;27377;-79
2022/11/20 03:02:26;;;;;;;17.83;14.30;;;6.20;99.90;;;;;;920123;151;27245;-79
2022/11/20 03:04:53;;;;;;;21.03;14.27;;;6.10;99.90;;;;;;930324;152;27438;-80
2022/11/20 03:07:19;;;;;;;16.83;13.10;;;6.10;99.90;;;;;;930449;154;27353;-79
2022/11/20 03:09:46;;;;;;;18.50;13.40;;;6.10;99.90;;;;;;937088;151;27784;-81
2022/11/20 03:12:13;;;;;;;18.87;14.43;;;6.10;99.90;;;;;;921703;152;27819;-79
2022/11/20 03:14:39;;;;;;;17.67;13.47;;;6.10;99.90;;;;;;920718;151;27511;-79
2022/11/20 03:17:06;;;;;;;17.87;14.00;;;6.10;99.90;;;;;;919205;154;27815;-79
2022/11/20 03:19:33;;;;;;;20.50;13.97;;;6.10;99.90;;;;;;916539;154;27344;-80
2022/11/20 03:22:00;;;;;;;20.63;14.87;;;6.10;99.90;;;;;;929751;154;27437;-80
2022/11/20 03:24:26;;;;;;;16.03;12.17;;;6.10;99.90;;;;;;915632;154;27398;-80
2022/11/20 03:26:52;;;;;;;15.80;13.47;;;6.10;99.90;;;;;;922787;154;27383;-79
2022/11/20 03:29:19;;;;;;;17.40;13.97;;;6.10;99.90;;;;;;936583;151;27450;-80
2022/11/20 03:31:45;;;;;;;18.30;13.90;;;6.10;99.90;;;;;;937965;150;27458;-79
2022/11/20 03:34:12;;;;;;;17.40;13.20;;;6.10;99.90;;;;;;928649;150;27528;-79
2022/11/20 03:36:38;;;;;;;15.67;12.53;;;6.10;99.90;;;;;;929934;150;27342;-79
2022/11/20 03:39:05;;;;;;;16.53;13.03;;;6.10;99.90;;;;;;936089;150;27895;-79
2022/11/20 03:41:32;;;;;;;17.60;12.83;;;6.10;99.90;;;;;;944943;147;27345;-79
2022/11/20 03:43:58;;;;;;;17.50;13.50;;;6.20;99.90;;;;;;935761;150;28150;-79
2022/11/20 03:46:28;;;;;;;15.83;12.20;;;6.20;99.90;;;;;;941039;148;27885;-79
2022/11/20 03:48:54;;;;;;;16.47;12.17;;;6.20;99.90;;;;;;944536;147;27484;-79
2022/11/20 03:51:21;;;;;;;18.27;12.93;;;6.20;99.90;;;;;;931399;150;27535;-79
2022/11/20 03:53:47;;;;;;;15.17;11.90;;;6.20;99.90;;;;;;931078;150;27256;-77
2022/11/20 03:56:14;;;;;;;16.97;12.60;;;6.20;99.90;;;;;;932180;150;27469;-77
2022/11/20 03:58:40;;;;;;;19.87;14.10;;;6.20;99.90;;;;;;932146;150;27366;-77
2022/11/20 04:01:07;;;;;;;18.83;13.00;;;6.20;99.90;;;;;;932279;150;27367;-81
2022/11/20 04:03:34;;;;;;;16.57;13.47;;;6.20;99.90;;;;;;930882;150;27369;-80
2022/11/20 04:06:03;;;;;;;20.43;14.27;;;6.20;99.90;;;;;;926118;150;28486;-78
2022/11/20 04:08:30;;;;;;;16.17;12.07;;;6.20;99.90;;;;;;940763;148;27395;-78
2022/11/20 04:10:56;;;;;;;15.43;12.17;;;6.20;99.90;;;;;;942354;148;27790;-78
2022/11/20 04:13:23;;;;;;;17.00;13.10;;;6.20;99.90;;;;;;942482;148;27336;-80
2022/11/20 04:15:49;;;;;;;15.87;11.87;;;6.30;99.90;;;;;;943429;148;27404;-77
2022/11/20 04:18:16;;;;;;;15.73;11.83;;;6.30;99.90;;;;;;943483;148;27717;-81
2022/11/20 04:20:43;;;;;;;16.93;12.57;;;6.30;99.90;;;;;;943112;148;27340;-77
2022/11/20 04:23:09;;;;;;;15.80;11.97;;;6.30;99.90;;;;;;943772;148;27336;-78
2022/11/20 04:25:36;;;;;;;13.83;10.80;;;6.30;99.90;;;;;;943536;148;27354;-80
2022/11/20 04:28:02;;;;;;;16.33;12.13;;;6.30;99.90;;;;;;943846;148;27376;-81
2022/11/20 04:30:29;;;;;;;17.83;12.87;;;6.30;99.90;;;;;;943031;148;27374;-78
2022/11/20 04:32:56;;;;;;;17.70;13.03;;;6.30;99.90;;;;;;942477;147;27392;-77
2022/11/20 04:35:22;;;;;;;16.93;12.17;;;6.30;99.90;;;;;;944823;147;27342;-79
2022/11/20 04:37:49;;;;;;;17.43;12.83;;;6.30;99.90;;;;;;945425;147;27296;-78
2022/11/20 04:40:15;;;;;;;15.93;12.53;;;6.30;99.90;;;;;;943441;147;27362;-81
2022/11/20 04:42:42;;;;;;;17.23;12.83;;;6.30;99.90;;;;;;942545;147;27498;-76
2022/11/20 04:45:09;;;;;;;16.30;12.43;;;6.30;99.90;;;;;;944757;147;27404;-77
2022/11/20 04:47:35;;;;;;;13.63;11.17;;;6.30;99.90;;;;;;944409;147;27423;-77
2022/11/20 04:50:02;;;;;;;16.10;11.63;;;6.30;99.90;;;;;;944399;147;27420;-79
2022/11/20 04:52:28;;;;;;;16.67;12.53;;;6.30;99.90;;;;;;945947;147;27342;-80
2022/11/20 04:54:55;;;;;;;14.93;12.17;;;6.30;99.90;;;;;;943957;147;27384;-77
2022/11/20 04:57:21;;;;;;;15.73;11.87;;;6.30;99.90;;;;;;944872;147;28075;-79
2022/11/20 04:59:48;;;;;;;18.43;12.03;;;6.30;99.90;;;;;;945131;147;27335;-77
2022/11/20 05:02:15;;;;;;;14.27;11.33;;;6.30;99.90;;;;;;946691;147;27508;-78
2022/11/20 05:04:41;;;;;;;17.43;13.13;;;6.30;99.90;;;;;;943421;147;27343;-78
2022/11/20 05:07:08;;;;;;;16.40;12.60;;;6.30;99.90;;;;;;945676;147;27366;-78
2022/11/20 05:09:34;;;;;;;15.83;11.33;;;6.30;99.90;;;;;;944787;147;27427;-78
2022/11/20 05:12:01;;;;;;;15.00;11.77;;;6.30;99.90;;;;;;944507;147;27389;-78
2022/11/20 05:14:28;;;;;;;17.53;12.80;;;6.30;99.90;;;;;;914655;153;27378;-77
2022/11/20 05:16:54;;;;;;;17.27;12.57;;;6.30;99.90;;;;;;943712;147;27319;-78
2022/11/20 05:19:21;;;;;;;14.60;11.53;;;6.30;99.90;;;;;;921821;153;27836;-80
2022/11/20 05:21:47;;;;;;;16.40;12.10;;;6.40;99.90;;;;;;945694;147;27355;-78
2022/11/20 05:24:14;;;;;;;16.67;12.00;;;6.40;99.90;;;;;;910884;153;29364;-78
2022/11/20 05:26:41;;;;;;;16.40;11.50;;;6.40;99.90;;;;;;944235;147;27340;-78
2022/11/20 05:29:07;;;;;;;14.50;10.67;;;6.40;99.90;;;;;;948408;147;27323;-78
2022/11/20 05:31:34;;;;;;;15.67;10.83;;;6.40;99.90;;;;;;944162;147;27355;-80
2022/11/20 05:34:00;;;;;;;16.17;10.40;;;6.40;99.90;;;;;;939507;147;27420;-77
2022/11/20 05:36:27;;;;;;;16.93;12.33;;;6.40;99.90;;;;;;936883;151;28131;-78
2022/11/20 05:38:53;;;;;;;18.33;12.93;;;6.40;99.90;;;;;;937195;151;27336;-78
2022/11/20 05:41:20;;;;;;;16.67;12.00;;;6.40;99.90;;;;;;935215;151;27325;-77
2022/11/20 05:43:47;;;;;;;17.43;12.77;;;6.40;99.90;;;;;;935952;151;27338;-78
2022/11/20 05:46:13;;;;;;;16.80;12.97;;;6.40;99.90;;;;;;936484;151;27400;-79
2022/11/20 05:48:40;;;;;;;17.53;12.07;;;6.40;99.90;;;;;;935929;151;27375;-78
2022/11/20 05:51:06;;;;;;;17.73;12.03;;;6.40;99.90;;;;;;938233;151;27363;-77
2022/11/20 05:53:33;;;;;;;16.50;12.13;;;6.40;99.90;;;;;;935188;151;27303;-79
2022/11/20 05:56:06;;;;;;;17.93;12.10;;;6.40;99.90;;;;;;935615;151;27873;-79
2022/11/20 05:58:32;;;;;;;15.67;11.67;;;6.40;99.90;;;;;;936663;151;27445;-79
2022/11/20 06:01:08;;;;;;;16.10;11.87;;;6.40;99.90;;;;;;936267;151;27863;-77
2022/11/20 06:03:34;;;;;;;17.57;12.33;;;6.40;99.90;;;;;;937521;151;28794;-77
2022/11/20 06:06:01;;;;;;;16.47;10.57;;;6.40;99.90;;;;;;938861;151;27293;-78
2022/11/20 06:08:28;;;;;;;17.63;11.83;;;6.40;99.90;;;;;;936879;151;27755;-77
2022/11/20 06:10:54;;;;;;;16.83;11.67;;;6.40;99.90;;;;;;935837;151;27344;-80
2022/11/20 06:13:21;;;;;;;17.03;12.23;;;6.40;99.90;;;;;;935973;151;27350;-77
2022/11/20 06:15:50;;;;;;;17.73;12.47;;;6.50;99.90;;;;;;937425;151;27500;-77
2022/11/20 06:18:17;;;;;;;16.70;11.33;;;6.40;99.90;;;;;;937981;151;27341;-78
2022/11/20 06:20:43;;;;;;;17.87;12.23;;;6.50;99.90;;;;;;937052;151;27415;-78
2022/11/20 06:23:10;;;;;;;18.23;12.13;;;6.50;99.90;;;;;;937536;151;27904;-81
2022/11/20 06:25:42;;;;;;;16.73;11.90;;;6.50;99.90;;;;;;937209;151;27453;-77
2022/11/20 06:28:09;;;;;;;15.33;11.00;;;6.50;99.90;;;;;;937585;151;27374;-79
2022/11/20 06:30:35;;;;;;;16.00;11.23;;;6.50;99.90;;;;;;955590;148;27705;-78
2022/11/20 06:33:02;;;;;;;18.13;12.13;;;6.50;99.90;;;;;;955498;148;27258;-78
2022/11/20 06:35:29;;;;;;;19.47;12.50;;;6.50;99.90;;;;;;957811;148;27386;-81
2022/11/20 06:37:55;;;;;;;16.23;11.70;;;6.50;99.90;;;;;;954502;148;28283;-78
2022/11/20 06:40:22;;;;;;;17.43;11.37;;;6.50;99.90;;;;;;955102;148;27346;-78
2022/11/20 06:42:48;;;;;;;16.10;11.63;;;6.60;99.90;;;;;;956302;148;27323;-77
2022/11/20 06:45:15;;;;;;;17.50;11.37;;;6.60;99.90;;;;;;955832;148;27307;-80
2022/11/20 06:47:41;;;;;;;20.37;13.00;;;6.60;99.90;;;;;;955650;148;27411;-78
2022/11/20 06:50:08;;;;;;;17.00;12.80;;;6.60;99.90;;;;;;953655;148;27324;-79
2022/11/20 06:52:35;;;;;;;16.90;11.57;;;6.60;99.90;;;;;;955760;148;27422;-77
2022/11/20 06:55:01;;;;;;;19.50;13.13;;;6.60;99.90;;;;;;954975;148;27362;-78
2022/11/20 06:57:28;;;;;;;20.20;13.37;;;6.70;99.90;;;;;;956302;148;27437;-77
2022/11/20 06:59:54;;;;;;;19.53;13.87;;;6.70;99.90;;;;;;954494;148;27959;-78
2022/11/20 07:02:21;;;;;;;19.40;13.77;;;6.70;99.90;;;;;;955996;148;27331;-81
2022/11/20 07:04:48;;;;;;;19.53;13.03;;;6.70;99.90;;;;;;954904;148;27433;-78
2022/11/20 07:07:14;;;;;;;20.30;14.40;;;6.70;99.90;;;;;;955873;148;27367;-79
2022/11/20 07:09:41;;;;;;;19.90;14.03;;;6.70;99.90;;;;;;955409;148;27382;-77
2022/11/20 07:12:07;;;;;;;20.50;13.20;;;6.70;99.90;;;;;;956346;148;27394;-78
2022/11/20 07:14:34;;;;;;;20.70;14.80;;;6.70;99.90;;;;;;957322;148;27382;-81
2022/11/20 07:17:01;;;;;;;19.40;14.90;;;6.70;99.90;;;;;;955117;148;27433;-79
2022/11/20 07:19:27;;;;;;;18.70;14.07;;;6.70;99.90;;;;;;956247;148;27361;-76
2022/11/20 07:21:54;;;;;;;20.23;13.73;;;6.70;99.90;;;;;;956267;148;27302;-77
2022/11/20 07:24:20;;;;;;;21.80;13.87;;;6.70;99.90;;;;;;956773;148;27321;-79
2022/11/20 07:26:48;;;;;;;20.23;13.57;;;6.70;99.90;;;;;;956304;148;27303;-77
2022/11/20 07:29:13;;;;;;;18.50;13.40;;;6.70;99.90;;;;;;954951;148;27345;-81
2022/11/20 07:31:40;;;;;;;18.73;13.63;;;6.70;99.90;;;;;;955477;148;27366;-78
2022/11/20 07:34:07;;;;;;;16.27;11.43;;;6.70;99.90;;;;;;954303;148;27764;-77
2022/11/20 07:36:33;;;;;;;16.63;12.10;;;6.60;99.90;;;;;;959825;145;27290;-78
2022/11/20 07:39:00;;;;;;;17.83;12.77;;;6.70;99.90;;;;;;957607;145;27280;-78
2022/11/20 07:41:27;;;;;;;17.03;12.70;;;6.70;99.90;;;;;;959721;145;27653;-81
2022/11/20 07:43:53;;;;;;;16.73;12.33;;;6.70;99.90;;;;;;958928;145;27430;-79
2022/11/20 07:46:20;;;;;;;15.33;11.10;;;6.70;99.90;;;;;;960749;145;27354;-77
2022/11/20 07:48:46;;;;;;;18.03;12.93;;;6.70;99.90;;;;;;958342;145;27309;-77
2022/11/20 07:51:13;;;;;;;18.90;13.03;;;6.70;99.90;;;;;;956933;145;27806;-77
2022/11/20 07:53:39;;;;;;;17.67;11.97;;;6.80;99.90;;;;;;958019;145;27303;-77
2022/11/20 07:56:06;;;;;;;15.70;10.27;;;6.80;99.90;;;;;;958666;145;27366;-77
2022/11/20 07:58:34;;;;;;;14.07;10.57;;;6.80;99.90;;;;;;958569;145;27490;-78
2022/11/20 08:01:05;;;;;;;12.47;9.20;;;6.80;99.90;;;;;;958362;145;27330;-76
2022/11/20 08:03:31;;;;;;;15.17;10.87;;;6.80;99.90;;;;;;957349;145;27427;-77
2022/11/20 08:06:01;;;;;;;13.90;10.17;;;6.80;99.90;;;;;;959715;145;27325;-78
2022/11/20 08:08:28;;;;;;;13.73;9.63;;;6.80;99.90;;;;;;958803;145;27495;-77
2022/11/20 08:14:11;;;;;;;11.33;8.20;;;6.80;99.90;;;;;;958801;145;27357;-77
2022/11/20 08:18:42;;;;;;;11.53;8.50;;;6.90;99.90;;;;;;973386;144;37068;-78
2022/11/20 08:21:08;;;;;;;11.90;8.63;;;6.90;99.90;;;;;;958986;148;27414;-80
2022/11/20 08:23:35;;;;;;;11.10;8.10;;;6.90;99.90;;;;;;958247;148;27322;-76
2022/11/20 08:26:01;;;;;;;9.30;7.07;;;7.00;99.90;;;;;;960234;148;27780;-78
2022/11/20 08:28:28;;;;;;;10.17;8.20;;;7.10;99.90;;;;;;959772;149;27316;-78
2022/11/20 08:30:54;;;;;;;11.33;8.50;;;7.20;99.90;;;;;;958584;149;27378;-77
2022/11/20 08:33:21;;;;;;;12.23;9.40;;;7.20;99.90;;;;;;959564;148;27793;-78
2022/11/20 08:35:47;;;;;;;12.23;8.83;;;7.30;99.90;;;;;;958162;149;27460;-81
2022/11/20 08:38:14;;;;;;;13.13;9.27;;;7.30;99.90;;;;;;958233;149;27321;-78
2022/11/20 08:40:41;;;;;;;13.87;10.00;;;7.40;99.90;;;;;;959653;148;27318;-77
2022/11/20 08:43:07;;;;;;;13.93;10.50;;;7.40;99.90;;;;;;959831;148;27355;-78
2022/11/20 08:45:34;;;;;;;15.43;10.50;;;7.50;99.90;;;;;;960576;147;27423;-78
2022/11/20 08:48:00;;;;;;;14.77;10.30;;;7.50;99.90;;;;;;959894;145;27325;-81
2022/11/20 08:50:27;;;;;;;15.83;11.30;;;7.50;99.90;;;;;;959284;149;27503;-79
2022/11/20 08:52:54;;;;;;;14.50;10.40;;;7.60;99.90;;;;;;959347;149;27296;-77
2022/11/20 08:55:20;;;;;;;15.43;10.43;;;7.60;99.90;;;;;;959893;145;27324;-77
2022/11/20 08:57:47;;;;;;;15.97;10.70;;;7.60;99.90;;;;;;959865;147;27270;-77
2022/11/20 09:00:14;;;;;;;15.70;10.77;;;7.70;99.90;;;;;;960107;149;27296;-80
2022/11/20 09:02:40;;;;;;;15.70;11.00;;;7.70;99.90;;;;;;959643;149;27402;-80
2022/11/20 09:05:07;;;;;;;13.00;10.07;;;7.70;99.90;;;;;;958901;148;28009;-77
2022/11/20 09:07:33;;;;;;;13.20;10.67;;;7.70;99.90;;;;;;959265;149;27692;-78
2022/11/20 09:10:00;;;;;;;13.63;9.97;;;7.70;99.90;;;;;;946779;148;27834;-77
2022/11/20 09:12:26;;;;;;;15.30;10.53;;;7.80;99.90;;;;;;946474;151;27291;-80
2022/11/20 09:14:53;;;;;;;13.33;9.87;;;7.80;99.90;;;;;;946357;148;27318;-79
2022/11/20 09:17:20;;;;;;;16.23;10.73;;;7.80;99.90;;;;;;947322;150;27391;-78
2022/11/20 09:19:46;;;;;;;14.77;10.80;;;7.90;99.90;;;;;;947828;148;27365;-77
2022/11/20 09:22:13;;;;;;;15.57;10.73;;;7.90;99.90;;;;;;948693;148;27307;-78
2022/11/20 09:24:39;;;;;;;15.00;10.93;;;8.00;99.90;;;;;;948717;148;27315;-77
2022/11/20 09:27:06;;;;;;;15.93;11.13;;;8.00;99.90;;;;;;948863;148;27745;-77
2022/11/20 09:29:33;;;;;;;19.30;12.67;;;8.10;99.90;;;;;;948386;148;27371;-81
2022/11/20 09:31:59;;;;;;;15.83;11.87;;;8.10;99.90;;;;;;948830;150;27346;-77
2022/11/20 09:34:26;;;;;;;15.90;11.50;;;8.20;99.90;;;;;;948383;148;27318;-77
2022/11/20 09:36:53;;;;;;;16.67;12.50;;;8.20;99.90;;;;;;948358;148;27246;-77
2022/11/20 09:39:20;;;;;;;18.53;12.87;;;8.30;99.90;;;;;;948268;151;27275;-78
2022/11/20 09:41:55;;;;;;;17.20;13.17;;;8.40;99.90;;;;;;948782;148;27437;-77
2022/11/20 09:44:27;;;;;;;17.30;12.47;;;8.50;99.90;;;;;;947565;149;27423;-79
2022/11/20 09:46:54;;;;;;;18.47;13.13;;;8.60;99.90;;;;;;946689;151;27310;-77
2022/11/20 09:49:51;;;;;;;16.17;11.97;;;8.60;99.90;;;;;;947879;148;27375;-77
2022/11/20 09:52:24;;;;;;;15.90;11.27;;;8.70;99.90;;;;;;948408;151;27321;-78
2022/11/20 09:54:50;;;;;;;19.40;12.40;;;8.80;99.90;;;;;;948247;148;27388;-77
2022/11/20 09:57:19;;;;;;;19.87;13.27;;;8.80;99.90;;;;;;948336;148;27425;-79
2022/11/20 09:59:55;;;;;;;17.93;12.63;;;8.80;99.90;;;;;;948161;148;27447;-77
2022/11/20 10:02:24;;;;;;;16.17;12.77;;;8.80;99.90;;;;;;938778;150;27391;-77
2022/11/20 10:04:56;;;;;;;15.73;11.67;;;8.90;99.90;;;;;;947549;151;27400;-78
2022/11/20 10:07:38;;;;;;;20.07;13.60;;;8.90;99.90;;;;;;946197;151;27444;-77
2022/11/20 10:10:05;;;;;;;15.97;12.20;;;8.90;99.90;;;;;;947776;148;27875;-78
2022/11/20 10:12:43;;;;;;;16.67;12.50;;;9.00;99.90;;;;;;948611;151;27434;-77
2022/11/20 10:15:28;;;;;;;15.57;12.27;;;9.00;99.90;;;;;;946272;150;27259;-79
2022/11/20 10:17:58;;;;;;;16.00;12.17;;;9.10;99.90;;;;;;946455;148;27322;-77
2022/11/20 10:20:24;;;;;;;15.37;12.47;;;9.20;99.90;;;;;;939400;149;27320;-79
2022/11/20 10:23:03;;;;;;;15.70;12.93;;;9.20;99.90;;;;;;940554;151;27465;-81
2022/11/20 10:25:48;;;;;;;15.33;12.60;;;9.20;99.90;;;;;;940562;149;27369;-78
2022/11/20 10:28:20;;;;;;;17.47;11.63;;;9.30;99.90;;;;;;915201;151;27347;-77
2022/11/20 10:30:46;;;;;;;14.47;11.70;;;9.30;99.90;;;;;;925310;152;27315;-77
2022/11/20 10:33:22;;;;;;;15.53;12.37;;;9.40;99.90;;;;;;939633;152;27344;-82
2022/11/20 10:36:13;;;;;;;15.00;11.50;;;9.40;99.90;;;;;;940015;151;27903;-78
2022/11/20 10:38:39;;;;;;;13.53;11.30;;;9.50;99.90;;;;;;940035;149;27341;-77
2022/11/20 10:43:51;;;;;;;14.97;11.97;;;9.50;99.90;;;;;;940314;152;27285;-78
2022/11/20 10:46:17;;;;;;;13.00;10.53;;;9.50;99.90;;;;;;939320;151;27819;-77
2022/11/20 10:48:44;;;;;;;12.23;10.67;;;9.60;99.90;;;;;;940246;151;27377;-80
2022/11/20 10:51:16;;;;;;;13.77;11.40;;;9.60;99.90;;;;;;940996;149;27355;-77
2022/11/20 10:54:00;;;;;;;13.70;11.53;;;9.60;99.90;;;;;;939858;150;27301;-77
2022/11/20 10:56:36;;;;;;;13.97;11.67;;;9.60;99.90;;;;;;939640;150;27312;-79
2022/11/20 10:59:37;;;;;;;15.67;11.53;;;9.60;99.90;;;;;;940157;152;27324;-78
2022/11/20 11:02:03;;;;;;;17.13;11.13;;;9.60;99.90;;;;;;940351;152;27305;-77
2022/11/20 11:04:33;;;;;;;16.53;11.90;;;9.60;99.90;;;;;;938244;149;27375;-77
2022/11/20 11:06:59;;;;;;;16.00;11.73;;;9.60;99.90;;;;;;938499;149;27796;-77
2022/11/20 11:09:26;;;;;;;15.37;11.40;;;9.60;99.90;;;;;;939411;149;27387;-77
2022/11/20 11:11:52;;;;;;;15.60;12.20;;;9.60;99.90;;;;;;939758;149;27420;-76
2022/11/20 11:14:19;;;;;;;15.23;12.07;;;9.70;99.90;;;;;;940760;150;27300;-76
2022/11/20 11:16:55;;;;;;;14.90;12.73;;;9.70;99.90;;;;;;940256;152;27393;-78
2022/11/20 11:19:23;;;;;;;13.60;11.30;;;9.70;99.90;;;;;;945358;149;27412;-77
2022/11/20 11:21:52;;;;;;;13.40;10.90;;;9.80;99.90;;;;;;953399;147;27306;-77
2022/11/20 11:24:25;;;;;;;12.80;10.93;;;9.80;99.90;;;;;;952444;148;27352;-76
2022/11/20 11:26:57;;;;;;;12.87;10.43;;;9.80;99.90;;;;;;953166;150;27930;-77
2022/11/20 11:29:26;;;;;;;13.50;10.87;;;9.80;99.90;;;;;;948600;150;27391;-78
2022/11/20 11:31:50;;;;;;;14.17;10.83;;;9.90;99.90;;;;;;951773;147;27349;-78
2022/11/20 11:34:17;;;;;;;13.70;11.47;;;9.90;99.90;;;;;;950385;147;27819;-80
2022/11/20 11:36:53;;;;;;;12.97;11.30;;;9.90;99.90;;;;;;950603;147;27432;-80
2022/11/20 11:39:20;;;;;;;13.63;10.73;;;9.90;99.90;;;;;;951655;147;27342;-77
2022/11/20 11:41:46;;;;;;;12.33;10.23;;;10.00;99.90;;;;;;952236;150;28197;-76
2022/11/20 11:47:06;;;;;;;13.17;10.70;;;10.00;99.90;;;;;;952986;150;27242;-77
2022/11/20 11:49:33;;;;;;;14.73;11.73;;;10.00;99.90;;;;;;952301;149;27821;-77
2022/11/20 11:52:08;;;;;;;12.00;10.37;;;10.00;99.90;;;;;;953354;150;27337;-77
2022/11/20 11:54:37;;;;;;;13.60;10.87;;;10.00;99.90;;;;;;952422;150;27350;-77
2022/11/20 11:57:04;;;;;;;12.20;10.57;;;10.00;99.80;;;;;;952128;147;27392;-77
2022/11/20 12:00:04;;;;;;;19.73;16.10;;;10.00;99.60;;;;;;951692;147;27352;-77
2022/11/20 12:02:33;;;;;;;16.03;12.67;;;10.00;99.50;;;;;;953284;148;27334;-79
2022/11/20 12:05:00;;;;;;;11.93;10.50;;;10.00;99.40;;;;;;951840;147;27425;-78
2022/11/20 12:07:39;;;;;;;12.57;10.90;;;9.90;99.60;;;;;;949057;147;27386;-76
2022/11/20 12:10:05;;;;;;;12.10;9.93;;;9.90;99.90;;;;;;953073;147;27326;-78
2022/11/20 12:12:31;;;;;;;16.10;12.00;;;9.90;99.90;;;;;;953395;149;27329;-77
2022/11/20 12:14:58;;;;;;;14.60;12.27;;;9.90;99.90;;;;;;952005;149;27487;-80
2022/11/20 12:17:25;;;;;;;14.20;11.97;;;9.90;99.90;;;;;;953416;148;27454;-77
2022/11/20 12:19:51;;;;;;;15.10;12.23;;;9.90;99.90;;;;;;948731;148;27343;-77
2022/11/20 12:22:39;;;;;;;15.30;12.43;;;10.00;99.90;;;;;;940283;152;27316;-77
2022/11/20 12:25:08;;;;;;;16.87;12.90;;;10.00;99.90;;;;;;939724;149;27315;-79
2022/11/20 12:27:44;;;;;;;14.73;12.03;;;10.00;99.90;;;;;;940072;149;27882;-77
2022/11/20 12:30:10;;;;;;;13.33;11.17;;;10.00;99.90;;;;;;940196;149;27757;-78
2022/11/20 12:32:43;;;;;;;14.87;11.63;;;10.00;99.90;;;;;;940757;149;27420;-77
2022/11/20 12:35:18;;;;;;;14.80;12.50;;;10.00;99.90;;;;;;939958;151;27323;-77
2022/11/20 12:37:50;;;;;;;16.30;11.83;;;10.10;99.90;;;;;;940066;149;27310;-79
2022/11/20 12:40:23;;;;;;;14.60;11.60;;;10.10;99.90;;;;;;940160;149;27356;-76
2022/11/20 12:45:46;;;;;;;12.50;10.37;;;10.10;99.90;;;;;;939590;150;28378;-77
2022/11/20 12:48:19;;;;;;;15.30;12.57;;;10.10;99.90;;;;;;939640;149;27246;-76
2022/11/20 12:51:01;;;;;;;15.03;11.77;;;10.10;99.90;;;;;;940491;151;27766;-77
2022/11/20 12:53:54;;;;;;;15.93;11.70;;;10.10;99.90;;;;;;940456;149;27364;-76
2022/11/20 12:56:51;;;;;;;13.77;9.57;;;10.10;99.90;;;;;;940077;149;27368;-76